Time,TemperatureF,DewpointF,PressureIn,WindDirection,WindDirectionDegrees,WindSpeedMPH,WindSpeedGustMPH,Humidity,HourlyPrecipIn,Conditions,Clouds,dailyrainin,SoftwareType,DateUTC
2013-11-11 00:01:00,36.5,15.1,0.00,SE,138,0.0,0.0,41,0.00,,,0.00,VWS V13.01,2013-11-11 06:01:00,
2013-11-11 00:06:00,36.7,15.2,0.00,SE,138,0.0,0.0,41,0.00,,,0.00,VWS V13.01,2013-11-11 06:06:00,
2013-11-11 00:11:00,36.7,15.2,0.00,NNW,348,0.0,0.0,41,0.00,,,0.00,VWS V13.01,2013-11-11 06:11:00,
2013-11-11 00:16:00,36.7,15.2,0.00,NNW,348,0.0,0.0,41,0.00,,,0.00,VWS V13.01,2013-11-11 06:16:00,
2013-11-11 00:21:00,36.7,15.2,0.00,NNW,348,0.0,0.0,41,0.00,,,0.00,VWS V13.01,2013-11-11 06:21:00,
2013-11-11 00:26:00,36.7,15.2,0.00,NNW,348,0.0,0.0,41,0.00,,,0.00,VWS V13.01,2013-11-11 06:26:00,
2013-11-11 00:31:00,36.5,15.1,0.00,NNW,346,0.0,0.0,41,0.00,,,0.00,VWS V13.01,2013-11-11 06:31:00,
2013-11-11 00:36:00,36.5,15.1,0.00,NNW,348,0.0,0.0,41,0.00,,,0.00,VWS V13.01,2013-11-11 06:36:00,
2013-11-11 00:41:00,36.5,15.6,0.00,NW,305,0.0,2.2,42,0.00,,,0.00,VWS V13.01,2013-11-11 06:41:00,
2013-11-11 00:46:00,36.5,15.6,0.00,NW,323,0.0,0.0,42,0.00,,,0.00,VWS V13.01,2013-11-11 06:46:00,
2013-11-11 00:51:00,36.5,15.6,0.00,NW,317,0.0,0.0,42,0.00,,,0.00,VWS V13.01,2013-11-11 06:51:00,
2013-11-11 00:56:00,36.5,15.6,0.00,WNW,300,0.0,0.0,42,0.00,,,0.00,VWS V13.01,2013-11-11 06:56:00,
2013-11-11 01:01:00,36.5,15.6,0.00,NNW,332,0.0,2.2,42,0.00,,,0.00,VWS V13.01,2013-11-11 07:01:00,
2013-11-11 01:06:00,36.5,15.6,0.00,WNW,295,0.0,2.2,42,0.00,,,0.00,VWS V13.01,2013-11-11 07:06:00,
2013-11-11 01:11:00,36.5,15.6,0.00,NW,319,0.0,2.2,42,0.00,,,0.00,VWS V13.01,2013-11-11 07:11:00,
2013-11-11 01:16:00,36.3,15.4,0.00,NW,311,0.0,0.0,42,0.00,,,0.00,VWS V13.01,2013-11-11 07:16:00,
2013-11-11 01:21:00,36.3,15.4,0.00,NW,304,3.1,3.1,42,0.00,,,0.00,VWS V13.01,2013-11-11 07:21:00,
2013-11-11 01:26:00,36.3,15.4,0.00,NW,305,0.0,0.0,42,0.00,,,0.00,VWS V13.01,2013-11-11 07:26:00,
2013-11-11 01:31:00,36.1,15.3,0.00,WNW,291,5.4,5.4,42,0.00,,,0.00,VWS V13.01,2013-11-11 07:31:00,
2013-11-11 01:36:00,36.1,15.3,0.00,NW,324,2.7,2.7,42,0.00,,,0.00,VWS V13.01,2013-11-11 07:36:00,
2013-11-11 01:41:00,36.1,15.3,0.00,NNW,335,3.1,4.0,42,0.00,,,0.00,VWS V13.01,2013-11-11 07:41:00,
2013-11-11 01:46:00,36.1,15.3,0.00,NNW,331,3.6,4.0,42,0.00,,,0.00,VWS V13.01,2013-11-11 07:46:00,
2013-11-11 01:51:00,36.0,15.1,0.00,NNW,345,2.7,2.7,42,0.00,,,0.00,VWS V13.01,2013-11-11 07:51:00,
2013-11-11 01:56:00,36.0,15.1,0.00,NE,39,7.6,7.6,42,0.00,,,0.00,VWS V13.01,2013-11-11 07:56:00,
2013-11-11 02:01:00,36.0,15.1,0.00,WNW,301,4.0,4.9,42,0.00,,,0.00,VWS V13.01,2013-11-11 08:01:00,
2013-11-11 02:06:00,36.0,15.1,0.00,NNW,329,6.3,6.3,42,0.00,,,0.00,VWS V13.01,2013-11-11 08:06:00,
2013-11-11 02:11:00,35.8,14.9,0.00,NNE,14,3.1,4.9,42,0.00,,,0.00,VWS V13.01,2013-11-11 08:11:00,
2013-11-11 02:16:00,35.8,14.9,0.00,NW,311,5.8,5.8,42,0.00,,,0.00,VWS V13.01,2013-11-11 08:16:00,
2013-11-11 02:21:00,35.6,14.8,0.00,West,263,6.3,6.3,42,0.00,,,0.00,VWS V13.01,2013-11-11 08:21:00,
2013-11-11 02:26:00,35.6,14.8,0.00,NNW,329,5.8,5.8,42,0.00,,,0.00,VWS V13.01,2013-11-11 08:26:00,
2013-11-11 02:31:00,35.4,15.2,0.00,NW,306,4.9,7.6,43,0.00,,,0.00,VWS V13.01,2013-11-11 08:31:00,
2013-11-11 02:36:00,35.4,15.2,0.00,NW,306,2.7,3.6,43,0.00,,,0.00,VWS V13.01,2013-11-11 08:36:00,
2013-11-11 02:41:00,35.4,15.2,0.00,WNW,294,4.0,5.8,43,0.00,,,0.00,VWS V13.01,2013-11-11 08:41:00,
2013-11-11 02:46:00,35.2,15.0,0.00,NNW,348,6.3,7.6,43,0.00,,,0.00,VWS V13.01,2013-11-11 08:46:00,
2013-11-11 02:51:00,35.1,15.4,0.00,NW,314,3.6,6.3,44,0.00,,,0.00,VWS V13.01,2013-11-11 08:51:00,
2013-11-11 02:56:00,34.9,15.2,0.00,NW,319,3.6,3.6,44,0.00,,,0.00,VWS V13.01,2013-11-11 08:56:00,
2013-11-11 03:01:00,34.7,15.6,0.00,WNW,293,4.9,6.3,45,0.00,,,0.00,VWS V13.01,2013-11-11 09:01:00,
2013-11-11 03:06:00,34.5,16.9,0.00,WNW,298,4.9,14.5,48,0.00,,,0.00,VWS V13.01,2013-11-11 09:06:00,
2013-11-11 03:11:00,33.8,15.2,0.00,North,353,6.3,10.1,46,0.00,,,0.00,VWS V13.01,2013-11-11 09:11:00,
2013-11-11 03:16:00,33.1,14.6,0.00,WNW,303,10.1,13.2,46,0.00,,,0.00,VWS V13.01,2013-11-11 09:16:00,
2013-11-11 03:21:00,32.4,13.9,0.00,NW,325,2.7,5.4,46,0.00,,,0.00,VWS V13.01,2013-11-11 09:21:00,
2013-11-11 03:26:00,31.8,13.9,0.00,NW,321,3.1,3.6,47,0.00,,,0.00,VWS V13.01,2013-11-11 09:26:00,
2013-11-11 03:31:00,31.5,13.6,0.00,NW,313,3.1,3.1,47,0.00,,,0.00,VWS V13.01,2013-11-11 09:31:00,
2013-11-11 03:36:00,31.1,13.2,0.00,WNW,284,4.9,5.4,47,0.00,,,0.00,VWS V13.01,2013-11-11 09:36:00,
2013-11-11 03:41:00,30.9,13.1,0.00,NNW,340,3.6,4.5,47,0.00,,,0.00,VWS V13.01,2013-11-11 09:41:00,
2013-11-11 03:46:00,30.7,12.9,0.00,NW,326,4.9,4.9,47,0.00,,,0.00,VWS V13.01,2013-11-11 09:46:00,
2013-11-11 03:51:00,30.7,12.9,0.00,NW,304,3.1,3.6,47,0.00,,,0.00,VWS V13.01,2013-11-11 09:51:00,
2013-11-11 03:56:00,30.6,12.7,0.00,NNW,338,3.6,8.1,47,0.00,,,0.00,VWS V13.01,2013-11-11 09:56:00,
2013-11-11 04:01:00,30.2,9.9,0.00,ENE,74,4.0,8.1,42,0.00,,,0.00,VWS V13.01,2013-11-11 10:01:00,
2013-11-11 04:06:00,30.0,5.7,0.00,NW,320,8.3,8.3,35,0.00,,,0.00,VWS V13.01,2013-11-11 10:06:00,
2013-11-11 04:11:00,29.8,4.2,0.00,NNW,341,5.4,7.6,33,0.00,,,0.00,VWS V13.01,2013-11-11 10:11:00,
2013-11-11 04:16:00,29.7,3.4,0.00,NW,316,12.8,12.8,32,0.00,,,0.00,VWS V13.01,2013-11-11 10:16:00,
2013-11-11 04:21:00,29.3,2.4,0.00,North,0,8.3,8.3,31,0.00,,,0.00,VWS V13.01,2013-11-11 10:21:00,
2013-11-11 04:26:00,28.6,1.8,0.00,NNW,333,6.3,12.8,31,0.00,,,0.00,VWS V13.01,2013-11-11 10:26:00,
2013-11-11 04:31:00,28.2,1.5,0.00,NNW,344,8.7,11.0,31,0.00,,,0.00,VWS V13.01,2013-11-11 10:31:00,
2013-11-11 04:36:00,28.0,1.3,0.00,NNW,344,11.0,11.0,31,0.00,,,0.00,VWS V13.01,2013-11-11 10:36:00,
2013-11-11 04:41:00,27.7,1.7,0.00,NW,326,8.1,8.1,32,0.00,,,0.00,VWS V13.01,2013-11-11 10:41:00,
2013-11-11 04:46:00,27.5,1.5,0.00,North,1,3.6,8.1,32,0.00,,,0.00,VWS V13.01,2013-11-11 10:46:00,
2013-11-11 04:51:00,27.1,0.5,0.00,North,0,11.0,13.2,31,0.00,,,0.00,VWS V13.01,2013-11-11 10:51:00,
2013-11-11 04:56:00,27.0,1.0,0.00,NNW,343,4.0,4.9,32,0.00,,,0.00,VWS V13.01,2013-11-11 10:56:00,
2013-11-11 05:01:00,27.0,1.0,0.00,NW,318,5.8,8.1,32,0.00,,,0.00,VWS V13.01,2013-11-11 11:01:00,
2013-11-11 05:06:00,26.8,0.9,0.00,North,357,10.5,10.5,32,0.00,,,0.00,VWS V13.01,2013-11-11 11:06:00,
2013-11-11 05:11:00,26.6,0.7,0.00,NW,320,5.4,10.1,32,0.00,,,0.00,VWS V13.01,2013-11-11 11:11:00,
2013-11-11 05:16:00,26.4,0.6,0.00,NNW,345,7.6,13.2,32,0.00,,,0.00,VWS V13.01,2013-11-11 11:16:00,
2013-11-11 05:21:00,26.2,0.4,0.00,North,0,5.4,5.4,32,0.00,,,0.00,VWS V13.01,2013-11-11 11:21:00,
2013-11-11 05:26:00,26.1,0.2,0.00,WNW,303,7.6,8.3,32,0.00,,,0.00,VWS V13.01,2013-11-11 11:26:00,
2013-11-11 05:31:00,25.9,-0.6,0.00,NW,320,11.0,11.0,31,0.00,,,0.00,VWS V13.01,2013-11-11 11:31:00,
2013-11-11 05:36:00,25.5,-0.9,0.00,NNW,334,5.4,5.8,31,0.00,,,0.00,VWS V13.01,2013-11-11 11:36:00,
2013-11-11 05:41:00,25.2,-2.6,0.00,NW,306,5.8,11.4,29,0.00,,,0.00,VWS V13.01,2013-11-11 11:41:00,
2013-11-11 05:46:00,25.0,-2.8,0.00,NNW,334,3.6,11.0,29,0.00,,,0.00,VWS V13.01,2013-11-11 11:46:00,
2013-11-11 05:51:00,24.8,-2.9,0.00,North,353,2.7,8.3,29,0.00,,,0.00,VWS V13.01,2013-11-11 11:51:00,
2013-11-11 05:56:00,24.4,-3.2,0.00,NNW,345,3.1,5.8,29,0.00,,,0.00,VWS V13.01,2013-11-11 11:56:00,
2013-11-11 06:01:00,24.4,-3.2,0.00,NNW,338,5.8,10.5,29,0.00,,,0.00,VWS V13.01,2013-11-11 12:01:00,
2013-11-11 06:06:00,24.4,-3.2,0.00,NNW,338,8.1,12.8,29,0.00,,,0.00,VWS V13.01,2013-11-11 12:06:00,
2013-11-11 06:11:00,24.3,-1.3,0.00,NW,318,5.4,7.6,32,0.00,,,0.00,VWS V13.01,2013-11-11 12:11:00,
2013-11-11 06:16:00,24.3,-1.3,0.00,NW,308,3.1,4.0,32,0.00,,,0.00,VWS V13.01,2013-11-11 12:16:00,
2013-11-11 06:21:00,24.1,-1.5,0.00,NNW,331,6.3,8.1,32,0.00,,,0.00,VWS V13.01,2013-11-11 12:21:00,
2013-11-11 06:26:00,23.7,-1.8,0.00,North,353,8.3,8.3,32,0.00,,,0.00,VWS V13.01,2013-11-11 12:26:00,
2013-11-11 06:31:00,23.4,-2.1,0.00,North,0,0.0,7.6,32,0.00,,,0.00,VWS V13.01,2013-11-11 12:31:00,
2013-11-11 06:36:00,23.0,-1.8,0.00,NW,326,4.9,6.3,33,0.00,,,0.00,VWS V13.01,2013-11-11 12:36:00,
2013-11-11 06:41:00,22.8,-2.0,0.00,NW,314,11.0,11.0,33,0.00,,,0.00,VWS V13.01,2013-11-11 12:41:00,
2013-11-11 06:46:00,22.6,-2.1,0.00,North,0,6.3,6.3,33,0.00,,,0.00,VWS V13.01,2013-11-11 12:46:00,
2013-11-11 06:51:00,22.5,-2.3,0.00,North,357,7.6,7.6,33,0.00,,,0.00,VWS V13.01,2013-11-11 12:51:00,
2013-11-11 06:56:00,22.3,-2.4,0.00,NNW,331,5.8,10.5,33,0.00,,,0.00,VWS V13.01,2013-11-11 12:56:00,
2013-11-11 07:01:00,22.3,-2.4,0.00,NW,313,5.4,8.1,33,0.00,,,0.00,VWS V13.01,2013-11-11 13:01:00,
2013-11-11 07:06:00,22.1,-2.0,0.00,NW,322,3.1,7.6,34,0.00,,,0.00,VWS V13.01,2013-11-11 13:06:00,
2013-11-11 07:11:00,21.9,-2.1,0.00,North,6,8.3,8.3,34,0.00,,,0.00,VWS V13.01,2013-11-11 13:11:00,
2013-11-11 07:16:00,21.9,-2.1,0.00,NNW,332,8.3,8.3,34,0.00,,,0.00,VWS V13.01,2013-11-11 13:16:00,
2013-11-11 07:21:00,21.9,-2.1,0.00,NW,313,3.1,6.3,34,0.00,,,0.00,VWS V13.01,2013-11-11 13:21:00,
2013-11-11 07:26:00,21.7,-2.3,0.00,NW,326,3.1,5.4,34,0.00,,,0.00,VWS V13.01,2013-11-11 13:26:00,
2013-11-11 07:31:00,21.7,-2.3,0.00,NNW,339,6.3,6.3,34,0.00,,,0.00,VWS V13.01,2013-11-11 13:31:00,
2013-11-11 07:36:00,21.9,-2.1,0.00,WNW,301,7.6,7.6,34,0.00,,,0.00,VWS V13.01,2013-11-11 13:36:00,
2013-11-11 07:41:00,21.7,-2.3,0.00,NNE,17,3.6,8.7,34,0.00,,,0.00,VWS V13.01,2013-11-11 13:41:00,
2013-11-11 07:46:00,21.7,-2.3,0.00,North,353,9.6,10.1,34,0.00,,,0.00,VWS V13.01,2013-11-11 13:46:00,
2013-11-11 07:51:00,21.7,-2.3,0.00,NNW,327,6.3,8.1,34,0.00,,,0.00,VWS V13.01,2013-11-11 13:51:00,
2013-11-11 07:56:00,21.7,-2.3,0.00,North,0,6.3,6.3,34,0.00,,,0.00,VWS V13.01,2013-11-11 13:56:00,
2013-11-11 08:01:00,21.7,-2.3,0.00,WNW,302,8.3,8.7,34,0.00,,,0.00,VWS V13.01,2013-11-11 14:01:00,
2013-11-11 08:06:00,21.7,-2.3,0.00,NW,323,7.6,11.4,34,0.00,,,0.00,VWS V13.01,2013-11-11 14:06:00,
2013-11-11 08:11:00,21.7,-2.3,0.00,North,357,8.1,8.1,34,0.00,,,0.00,VWS V13.01,2013-11-11 14:11:00,
2013-11-11 08:16:00,21.7,-2.3,0.00,North,0,6.3,8.3,34,0.00,,,0.00,VWS V13.01,2013-11-11 14:16:00,
2013-11-11 08:21:00,21.7,-1.7,0.00,NNW,345,5.4,8.3,35,0.00,,,0.00,VWS V13.01,2013-11-11 14:21:00,
2013-11-11 08:26:00,21.6,-1.9,0.00,North,0,5.8,6.3,35,0.00,,,0.00,VWS V13.01,2013-11-11 14:26:00,
2013-11-11 08:31:00,21.4,-2.0,0.00,NNW,327,4.0,7.6,35,0.00,,,0.00,VWS V13.01,2013-11-11 14:31:00,
2013-11-11 08:36:00,21.4,-1.4,0.00,North,350,9.6,9.6,36,0.00,,,0.00,VWS V13.01,2013-11-11 14:36:00,
2013-11-11 08:41:00,21.2,-1.6,0.00,NW,320,11.0,11.0,36,0.00,,,0.00,VWS V13.01,2013-11-11 14:41:00,
2013-11-11 08:46:00,21.2,-1.6,0.00,NW,316,3.6,5.4,36,0.00,,,0.00,VWS V13.01,2013-11-11 14:46:00,
2013-11-11 08:51:00,21.2,-1.6,0.00,NNW,331,5.4,8.7,36,0.00,,,0.00,VWS V13.01,2013-11-11 14:51:00,
2013-11-11 08:56:00,21.2,-1.6,0.00,WNW,303,8.1,8.1,36,0.00,,,0.00,VWS V13.01,2013-11-11 14:56:00,
2013-11-11 09:01:00,21.2,-1.6,0.00,NNW,334,3.1,6.3,36,0.00,,,0.00,VWS V13.01,2013-11-11 15:01:00,
2013-11-11 09:07:00,21.4,-1.4,0.00,NW,320,3.1,4.0,36,0.00,,,0.00,VWS V13.01,2013-11-11 15:07:00,
2013-11-11 09:12:00,21.6,-1.9,0.00,NNW,348,12.8,13.2,35,0.00,,,0.00,VWS V13.01,2013-11-11 15:12:00,
2013-11-11 09:17:00,21.4,-2.6,0.00,NW,317,6.3,7.6,34,0.00,,,0.00,VWS V13.01,2013-11-11 15:17:00,
2013-11-11 09:22:00,21.6,-2.5,0.00,NW,313,6.3,6.3,34,0.00,,,0.00,VWS V13.01,2013-11-11 15:22:00,
2013-11-11 09:27:00,21.7,-2.3,0.00,NW,323,6.3,8.1,34,0.00,,,0.00,VWS V13.01,2013-11-11 15:27:00,
2013-11-11 09:32:00,21.7,-2.3,0.00,NNW,344,8.3,8.3,34,0.00,,,0.00,VWS V13.01,2013-11-11 15:32:00,
2013-11-11 09:37:00,21.7,-2.3,0.00,NNW,339,4.9,5.4,34,0.00,,,0.00,VWS V13.01,2013-11-11 15:37:00,
2013-11-11 09:42:00,21.9,-2.1,0.00,NW,311,3.1,3.1,34,0.00,,,0.00,VWS V13.01,2013-11-11 15:42:00,
2013-11-11 09:47:00,21.9,-2.1,0.00,NW,317,8.1,8.7,34,0.00,,,0.00,VWS V13.01,2013-11-11 15:47:00,
2013-11-11 09:52:00,21.9,-2.1,0.00,NW,305,3.1,5.4,34,0.00,,,0.00,VWS V13.01,2013-11-11 15:52:00,
2013-11-11 09:57:00,21.9,-2.1,0.00,NNW,342,4.9,7.6,34,0.00,,,0.00,VWS V13.01,2013-11-11 15:57:00,
2013-11-11 10:02:00,21.9,-2.1,0.00,NW,313,8.1,8.3,34,0.00,,,0.00,VWS V13.01,2013-11-11 16:02:00,
2013-11-11 10:07:00,21.9,-2.1,0.00,NNW,340,10.1,10.1,34,0.00,,,0.00,VWS V13.01,2013-11-11 16:07:00,
2013-11-11 10:12:00,21.9,-2.8,0.00,North,0,4.0,5.4,33,0.00,,,0.00,VWS V13.01,2013-11-11 16:12:00,
2013-11-11 10:17:00,22.1,-2.0,0.00,NW,309,4.0,7.6,34,0.00,,,0.00,VWS V13.01,2013-11-11 16:17:00,
2013-11-11 10:22:00,22.3,-2.4,0.00,NW,320,2.2,5.4,33,0.00,,,0.00,VWS V13.01,2013-11-11 16:22:00,
2013-11-11 10:27:00,22.5,-2.3,0.00,NNW,340,13.6,13.6,33,0.00,,,0.00,VWS V13.01,2013-11-11 16:27:00,
2013-11-11 10:32:00,22.3,-2.4,0.00,NW,322,10.1,11.0,33,0.00,,,0.00,VWS V13.01,2013-11-11 16:32:00,
2013-11-11 10:37:00,22.3,-2.4,0.00,NNW,341,6.3,7.6,33,0.00,,,0.00,VWS V13.01,2013-11-11 16:37:00,
2013-11-11 10:42:00,22.3,-2.4,0.00,NW,326,6.3,10.1,33,0.00,,,0.00,VWS V13.01,2013-11-11 16:42:00,
2013-11-11 10:47:00,22.3,-2.4,0.00,WNW,301,3.1,3.6,33,0.00,,,0.00,VWS V13.01,2013-11-11 16:47:00,
2013-11-11 10:52:00,22.3,-2.4,0.00,NNW,330,5.4,5.4,33,0.00,,,0.00,VWS V13.01,2013-11-11 16:52:00,
2013-11-11 10:57:00,22.1,-2.6,0.00,NNW,336,4.0,8.7,33,0.00,,,0.00,VWS V13.01,2013-11-11 16:57:00,
2013-11-11 11:02:00,22.1,-2.6,0.00,WNW,303,4.9,8.3,33,0.00,,,0.00,VWS V13.01,2013-11-11 17:02:00,
2013-11-11 11:07:00,21.9,-2.8,0.00,North,357,5.8,5.8,33,0.00,,,0.00,VWS V13.01,2013-11-11 17:07:00,
2013-11-11 11:12:00,21.7,-2.9,0.00,NW,310,6.3,6.3,33,0.00,,,0.00,VWS V13.01,2013-11-11 17:12:00,
2013-11-11 11:17:00,21.9,-2.8,0.00,WNW,295,3.1,7.2,33,0.00,,,0.00,VWS V13.01,2013-11-11 17:17:00,
2013-11-11 11:22:00,22.1,-2.6,0.00,NW,312,3.6,6.3,33,0.00,,,0.00,VWS V13.01,2013-11-11 17:22:00,
2013-11-11 11:27:00,22.6,-2.1,0.00,WNW,291,3.6,6.7,33,0.00,,,0.00,VWS V13.01,2013-11-11 17:27:00,
2013-11-11 11:32:00,23.0,-1.8,0.00,NNW,333,8.3,14.5,33,0.00,,,0.00,VWS V13.01,2013-11-11 17:32:00,
2013-11-11 11:37:00,23.5,-2.0,0.00,NW,318,5.8,5.8,32,0.00,,,0.00,VWS V13.01,2013-11-11 17:37:00,
2013-11-11 11:42:00,23.5,-2.0,0.00,North,353,8.7,8.7,32,0.00,,,0.00,VWS V13.01,2013-11-11 17:42:00,
2013-11-11 11:47:00,23.5,-2.0,0.00,North,353,8.1,8.1,32,0.00,,,0.00,VWS V13.01,2013-11-11 17:47:00,
2013-11-11 11:52:00,23.9,-1.7,0.00,NW,305,4.9,6.3,32,0.00,,,0.00,VWS V13.01,2013-11-11 17:52:00,
2013-11-11 11:57:00,23.9,-1.7,0.00,NW,313,4.0,5.4,32,0.00,,,0.00,VWS V13.01,2013-11-11 17:57:00,
2013-11-11 12:02:00,23.9,-1.7,0.00,NW,324,4.0,6.3,32,0.00,,,0.00,VWS V13.01,2013-11-11 18:02:00,
2013-11-11 12:07:00,23.9,-1.7,0.00,NW,324,6.3,6.3,32,0.00,,,0.00,VWS V13.01,2013-11-11 18:07:00,
2013-11-11 12:12:00,23.9,-1.7,0.00,WNW,299,5.4,5.4,32,0.00,,,0.00,VWS V13.01,2013-11-11 18:12:00,
2013-11-11 12:17:00,24.1,-1.5,0.00,NW,321,5.4,6.7,32,0.00,,,0.00,VWS V13.01,2013-11-11 18:17:00,
2013-11-11 12:22:00,24.1,-3.6,0.00,NNW,330,7.6,7.6,29,0.00,,,0.00,VWS V13.01,2013-11-11 18:22:00,
2013-11-11 12:27:00,24.4,-1.2,0.00,NW,310,5.4,7.6,32,0.00,,,0.00,VWS V13.01,2013-11-11 18:27:00,
2013-11-11 12:32:00,24.8,-2.9,0.00,NNW,333,4.0,5.8,29,0.00,,,0.00,VWS V13.01,2013-11-11 18:32:00,
2013-11-11 12:37:00,25.2,-2.6,0.00,NW,312,2.7,3.6,29,0.00,,,0.00,VWS V13.01,2013-11-11 18:37:00,
2013-11-11 12:42:00,25.0,-2.8,0.00,NW,316,10.1,10.1,29,0.00,,,0.00,VWS V13.01,2013-11-11 18:42:00,
2013-11-11 12:47:00,24.8,-2.9,0.00,NNW,327,8.3,8.7,29,0.00,,,0.00,VWS V13.01,2013-11-11 18:47:00,
2013-11-11 12:52:00,24.8,-2.9,0.00,NNW,327,5.4,6.7,29,0.00,,,0.00,VWS V13.01,2013-11-11 18:52:00,
2013-11-11 12:57:00,24.6,-3.1,0.00,NNW,335,5.8,5.8,29,0.00,,,0.00,VWS V13.01,2013-11-11 18:57:00,
2013-11-11 13:02:00,24.6,-3.1,0.00,NW,319,2.2,4.0,29,0.00,,,0.00,VWS V13.01,2013-11-11 19:02:00,
2013-11-11 13:07:00,24.8,-2.9,0.00,NNW,329,7.6,7.6,29,0.00,,,0.00,VWS V13.01,2013-11-11 19:07:00,
2013-11-11 13:12:00,25.0,-2.8,0.00,NW,316,3.6,3.6,29,0.00,,,0.00,VWS V13.01,2013-11-11 19:12:00,
2013-11-11 13:17:00,25.2,-2.6,0.00,North,349,6.3,8.3,29,0.00,,,0.00,VWS V13.01,2013-11-11 19:17:00,
2013-11-11 13:22:00,25.3,-2.5,0.00,NW,310,3.1,4.9,29,0.00,,,0.00,VWS V13.01,2013-11-11 19:22:00,
2013-11-11 13:27:00,25.3,-2.5,0.00,NW,304,5.4,6.3,29,0.00,,,0.00,VWS V13.01,2013-11-11 19:27:00,
2013-11-11 13:32:00,25.3,-4.7,0.00,NNW,327,3.1,4.9,26,0.00,,,0.00,VWS V13.01,2013-11-11 19:32:00,
2013-11-11 13:37:00,25.3,-4.7,0.00,WNW,295,5.4,5.8,26,0.00,,,0.00,VWS V13.01,2013-11-11 19:37:00,
2013-11-11 13:42:00,25.3,-4.7,0.00,NNW,332,5.4,10.1,26,0.00,,,0.00,VWS V13.01,2013-11-11 19:42:00,
2013-11-11 13:47:00,25.5,-4.6,0.00,North,2,6.3,7.6,26,0.00,,,0.00,VWS V13.01,2013-11-11 19:47:00,
2013-11-11 13:52:00,25.7,-4.4,0.00,North,10,2.7,3.6,26,0.00,,,0.00,VWS V13.01,2013-11-11 19:52:00,
2013-11-11 13:57:00,26.1,-4.1,0.00,NNW,340,8.1,8.1,26,0.00,,,0.00,VWS V13.01,2013-11-11 19:57:00,
2013-11-11 14:02:00,25.9,-4.3,0.00,NNW,337,8.3,8.3,26,0.00,,,0.00,VWS V13.01,2013-11-11 20:02:00,
2013-11-11 14:07:00,25.9,-4.3,0.00,NNE,31,7.6,7.6,26,0.00,,,0.00,VWS V13.01,2013-11-11 20:07:00,
2013-11-11 14:12:00,25.7,-4.4,0.00,NW,310,5.8,5.8,26,0.00,,,0.00,VWS V13.01,2013-11-11 20:12:00,
2013-11-11 14:17:00,25.7,-4.4,0.00,NNW,332,5.8,10.1,26,0.00,,,0.00,VWS V13.01,2013-11-11 20:17:00,
2013-11-11 14:22:00,25.9,-4.3,0.00,NW,321,3.1,8.3,26,0.00,,,0.00,VWS V13.01,2013-11-11 20:22:00,
2013-11-11 14:27:00,25.9,-4.3,0.00,NNW,338,6.3,6.3,26,0.00,,,0.00,VWS V13.01,2013-11-11 20:27:00,
2013-11-11 14:32:00,26.1,-4.1,0.00,NNW,339,7.6,10.1,26,0.00,,,0.00,VWS V13.01,2013-11-11 20:32:00,
2013-11-11 14:37:00,26.1,-4.1,0.00,North,357,5.8,9.2,26,0.00,,,0.00,VWS V13.01,2013-11-11 20:37:00,
2013-11-11 14:42:00,26.1,-4.1,0.00,North,8,8.7,8.7,26,0.00,,,0.00,VWS V13.01,2013-11-11 20:42:00,
2013-11-11 14:47:00,26.1,-4.1,0.00,NNW,337,6.3,6.3,26,0.00,,,0.00,VWS V13.01,2013-11-11 20:47:00,
2013-11-11 14:52:00,25.9,-4.3,0.00,NNW,328,8.1,10.1,26,0.00,,,0.00,VWS V13.01,2013-11-11 20:52:00,
2013-11-11 14:57:00,25.9,-5.9,0.00,NW,304,3.1,6.3,24,0.00,,,0.00,VWS V13.01,2013-11-11 20:57:00,
2013-11-11 15:02:00,25.9,-5.9,0.00,NNW,337,5.4,11.9,24,0.00,,,0.00,VWS V13.01,2013-11-11 21:02:00,
2013-11-11 15:07:00,25.9,-4.3,0.00,WNW,299,7.6,7.6,26,0.00,,,0.00,VWS V13.01,2013-11-11 21:07:00,
2013-11-11 15:12:00,25.9,-5.9,0.00,North,357,7.6,8.1,24,0.00,,,0.00,VWS V13.01,2013-11-11 21:12:00,
2013-11-11 15:17:00,25.9,-5.9,0.00,North,353,3.6,5.4,24,0.00,,,0.00,VWS V13.01,2013-11-11 21:17:00,
2013-11-11 15:22:00,25.9,-5.9,0.00,NNW,329,5.8,6.3,24,0.00,,,0.00,VWS V13.01,2013-11-11 21:22:00,
2013-11-11 15:27:00,25.9,-5.9,0.00,NNW,344,4.0,5.8,24,0.00,,,0.00,VWS V13.01,2013-11-11 21:27:00,
2013-11-11 15:32:00,25.7,-6.1,0.00,NW,322,8.1,11.4,24,0.00,,,0.00,VWS V13.01,2013-11-11 21:32:00,
2013-11-11 15:37:00,25.5,-6.2,0.00,WNW,300,3.6,8.1,24,0.00,,,0.00,VWS V13.01,2013-11-11 21:37:00,
2013-11-11 15:42:00,25.3,-6.4,0.00,NW,310,3.6,5.4,24,0.00,,,0.00,VWS V13.01,2013-11-11 21:42:00,
2013-11-11 15:47:00,25.3,-6.4,0.00,NW,323,5.4,5.4,24,0.00,,,0.00,VWS V13.01,2013-11-11 21:47:00,
2013-11-11 15:52:00,25.3,-6.4,0.00,NNW,330,3.1,3.6,24,0.00,,,0.00,VWS V13.01,2013-11-11 21:52:00,
2013-11-11 15:57:00,25.2,-6.6,0.00,NNW,344,8.3,9.6,24,0.00,,,0.00,VWS V13.01,2013-11-11 21:57:00,
2013-11-11 16:02:00,25.2,-6.6,0.00,NW,317,4.0,5.4,24,0.00,,,0.00,VWS V13.01,2013-11-11 22:02:00,
2013-11-11 16:07:00,25.0,-6.7,0.00,NW,320,3.1,8.1,24,0.00,,,0.00,VWS V13.01,2013-11-11 22:07:00,
2013-11-11 16:12:00,25.0,-6.7,0.00,NNW,333,5.8,9.2,24,0.00,,,0.00,VWS V13.01,2013-11-11 22:12:00,
2013-11-11 16:17:00,24.8,-6.9,0.00,North,0,5.4,5.4,24,0.00,,,0.00,VWS V13.01,2013-11-11 22:17:00,
2013-11-11 16:22:00,24.8,-6.9,0.00,NW,317,5.4,11.9,24,0.00,,,0.00,VWS V13.01,2013-11-11 22:22:00,
2013-11-11 16:27:00,24.6,-7.0,0.00,North,353,3.6,4.0,24,0.00,,,0.00,VWS V13.01,2013-11-11 22:27:00,
2013-11-11 16:32:00,24.4,-7.2,0.00,North,353,8.1,8.1,24,0.00,,,0.00,VWS V13.01,2013-11-11 22:32:00,
2013-11-11 16:37:00,24.4,-7.2,0.00,NW,322,5.8,5.8,24,0.00,,,0.00,VWS V13.01,2013-11-11 22:37:00,
2013-11-11 16:42:00,24.3,-7.3,0.00,NNW,339,3.6,6.3,24,0.00,,,0.00,VWS V13.01,2013-11-11 22:42:00,
2013-11-11 16:47:00,24.1,-7.5,0.00,NW,315,2.2,5.4,24,0.00,,,0.00,VWS V13.01,2013-11-11 22:47:00,
2013-11-11 16:52:00,23.9,-7.6,0.00,North,0,3.6,3.6,24,0.00,,,0.00,VWS V13.01,2013-11-11 22:52:00,
2013-11-11 16:57:00,23.9,-5.2,0.00,NW,319,2.7,4.9,27,0.00,,,0.00,VWS V13.01,2013-11-11 22:57:00,
2013-11-11 17:02:00,23.7,-5.4,0.00,North,350,0.0,4.0,27,0.00,,,0.00,VWS V13.01,2013-11-11 23:02:00,
2013-11-11 17:07:00,23.5,-5.5,0.00,NW,311,3.6,6.3,27,0.00,,,0.00,VWS V13.01,2013-11-11 23:07:00,
2013-11-11 17:12:00,23.5,-5.5,0.00,NNW,339,5.8,5.8,27,0.00,,,0.00,VWS V13.01,2013-11-11 23:12:00,
2013-11-11 17:17:00,23.5,-5.5,0.00,NW,326,3.1,5.4,27,0.00,,,0.00,VWS V13.01,2013-11-11 23:17:00,
2013-11-11 17:22:00,23.4,-5.7,0.00,NW,313,2.2,4.9,27,0.00,,,0.00,VWS V13.01,2013-11-11 23:22:00,
2013-11-11 17:27:00,23.2,-5.8,0.00,NNW,343,0.0,0.0,27,0.00,,,0.00,VWS V13.01,2013-11-11 23:27:00,
2013-11-11 17:32:00,23.0,-6.0,0.00,NNW,327,0.0,0.0,27,0.00,,,0.00,VWS V13.01,2013-11-11 23:32:00,
2013-11-11 17:37:00,22.8,-6.1,0.00,NNW,335,3.1,3.1,27,0.00,,,0.00,VWS V13.01,2013-11-11 23:37:00,
2013-11-11 17:42:00,22.8,-6.1,0.00,NNW,333,2.7,4.0,27,0.00,,,0.00,VWS V13.01,2013-11-11 23:42:00,
2013-11-11 17:47:00,22.6,-6.3,0.00,WNW,288,0.0,4.0,27,0.00,,,0.00,VWS V13.01,2013-11-11 23:47:00,
2013-11-11 17:52:00,22.6,-6.3,0.00,NNW,340,0.0,4.0,27,0.00,,,0.00,VWS V13.01,2013-11-11 23:52:00,
2013-11-11 17:57:00,22.6,-6.3,0.00,WNW,299,3.1,5.4,27,0.00,,,0.00,VWS V13.01,2013-11-11 23:57:00,
2013-11-11 18:02:00,22.5,-6.5,0.00,NW,321,2.7,3.6,27,0.00,,,0.00,VWS V13.01,2013-11-12 00:02:00,
2013-11-11 18:07:00,22.5,-6.5,0.00,NW,321,3.6,4.9,27,0.00,,,0.00,VWS V13.01,2013-11-12 00:07:00,
2013-11-11 18:12:00,22.3,-6.6,0.00,NW,317,2.7,2.7,27,0.00,,,0.00,VWS V13.01,2013-11-12 00:12:00,
2013-11-11 18:17:00,22.1,-6.8,0.00,NNW,332,0.0,3.6,27,0.00,,,0.00,VWS V13.01,2013-11-12 00:17:00,
2013-11-11 18:22:00,21.9,-6.9,0.00,WNW,290,2.2,2.7,27,0.00,,,0.00,VWS V13.01,2013-11-12 00:22:00,
2013-11-11 18:27:00,21.9,-6.9,0.00,NW,310,0.0,2.7,27,0.00,,,0.00,VWS V13.01,2013-11-12 00:27:00,
2013-11-11 18:32:00,21.7,-7.1,0.00,NNW,328,3.6,3.6,27,0.00,,,0.00,VWS V13.01,2013-11-12 00:32:00,
2013-11-11 18:37:00,21.7,-7.1,0.00,NNW,335,0.0,3.6,27,0.00,,,0.00,VWS V13.01,2013-11-12 00:37:00,
2013-11-11 18:42:00,21.6,-7.2,0.00,NW,322,3.6,4.0,27,0.00,,,0.00,VWS V13.01,2013-11-12 00:42:00,
2013-11-11 18:47:00,21.6,-7.2,0.00,North,1,4.0,4.9,27,0.00,,,0.00,VWS V13.01,2013-11-12 00:47:00,
2013-11-11 18:52:00,21.6,-7.2,0.00,NW,316,3.6,5.8,27,0.00,,,0.00,VWS V13.01,2013-11-12 00:52:00,
2013-11-11 18:57:00,21.6,-7.2,0.00,NW,325,3.1,3.6,27,0.00,,,0.00,VWS V13.01,2013-11-12 00:57:00,
2013-11-11 19:02:00,21.6,-7.2,0.00,NW,324,3.1,6.3,27,0.00,,,0.00,VWS V13.01,2013-11-12 01:02:00,
2013-11-11 19:07:00,21.6,-7.2,0.00,NNW,339,2.7,6.3,27,0.00,,,0.00,VWS V13.01,2013-11-12 01:07:00,
2013-11-11 19:12:00,21.4,-7.4,0.00,NW,324,3.6,3.6,27,0.00,,,0.00,VWS V13.01,2013-11-12 01:12:00,
2013-11-11 19:17:00,21.2,-7.6,0.00,WNW,295,0.0,0.0,27,0.00,,,0.00,VWS V13.01,2013-11-12 01:17:00,
2013-11-11 19:22:00,21.2,-7.6,0.00,NW,314,3.1,5.4,27,0.00,,,0.00,VWS V13.01,2013-11-12 01:22:00,
2013-11-11 19:27:00,21.2,-7.6,0.00,NNW,333,0.0,4.0,27,0.00,,,0.00,VWS V13.01,2013-11-12 01:27:00,
2013-11-11 19:32:00,21.2,-7.6,0.00,NW,325,5.8,5.8,27,0.00,,,0.00,VWS V13.01,2013-11-12 01:32:00,
2013-11-11 19:37:00,21.0,-7.7,0.00,NNW,327,3.6,3.6,27,0.00,,,0.00,VWS V13.01,2013-11-12 01:37:00,
2013-11-11 19:42:00,21.0,-7.7,0.00,NNW,341,2.7,4.0,27,0.00,,,0.00,VWS V13.01,2013-11-12 01:42:00,
2013-11-11 19:47:00,20.8,-7.9,0.00,NW,311,0.0,0.0,27,0.00,,,0.00,VWS V13.01,2013-11-12 01:47:00,
2013-11-11 19:52:00,20.7,-8.0,0.00,NNW,340,2.2,3.6,27,0.00,,,0.00,VWS V13.01,2013-11-12 01:52:00,
2013-11-11 19:57:00,20.7,-8.0,0.00,NW,317,2.2,4.0,27,0.00,,,0.00,VWS V13.01,2013-11-12 01:57:00,
2013-11-11 20:02:00,20.7,-8.0,0.00,NW,313,4.0,5.4,27,0.00,,,0.00,VWS V13.01,2013-11-12 02:02:00,
2013-11-11 20:07:00,20.5,-8.2,0.00,NNW,334,2.7,3.6,27,0.00,,,0.00,VWS V13.01,2013-11-12 02:07:00,
2013-11-11 20:12:00,20.5,-8.2,0.00,North,0,3.6,4.0,27,0.00,,,0.00,VWS V13.01,2013-11-12 02:12:00,
2013-11-11 20:17:00,20.5,-8.2,0.00,NNW,327,2.2,2.2,27,0.00,,,0.00,VWS V13.01,2013-11-12 02:17:00,
2013-11-11 20:22:00,20.3,-8.3,0.00,NW,324,2.7,5.8,27,0.00,,,0.00,VWS V13.01,2013-11-12 02:22:00,
2013-11-11 20:27:00,20.3,-8.3,0.00,North,357,3.6,5.4,27,0.00,,,0.00,VWS V13.01,2013-11-12 02:27:00,
2013-11-11 20:32:00,20.1,-8.5,0.00,North,353,4.0,6.3,27,0.00,,,0.00,VWS V13.01,2013-11-12 02:32:00,
2013-11-11 20:37:00,19.9,-8.6,0.00,NW,319,0.0,3.1,27,0.00,,,0.00,VWS V13.01,2013-11-12 02:37:00,
2013-11-11 20:42:00,19.9,-8.6,0.00,NNW,328,2.2,2.2,27,0.00,,,0.00,VWS V13.01,2013-11-12 02:42:00,
2013-11-11 20:47:00,19.8,-8.8,0.00,NW,320,0.0,2.2,27,0.00,,,0.00,VWS V13.01,2013-11-12 02:47:00,
2013-11-11 20:52:00,19.6,-6.8,0.00,WNW,303,2.2,2.7,30,0.00,,,0.00,VWS V13.01,2013-11-12 02:52:00,
2013-11-11 20:57:00,19.4,-7.0,0.00,WNW,299,0.0,0.0,30,0.00,,,0.00,VWS V13.01,2013-11-12 02:57:00,
2013-11-11 21:02:00,19.4,-7.0,0.00,NW,316,4.0,4.0,30,0.00,,,0.00,VWS V13.01,2013-11-12 03:02:00,
2013-11-11 21:07:00,19.4,-7.0,0.00,North,357,5.4,5.4,30,0.00,,,0.00,VWS V13.01,2013-11-12 03:07:00,
2013-11-11 21:12:00,19.4,-7.0,0.00,NNW,329,2.7,4.0,30,0.00,,,0.00,VWS V13.01,2013-11-12 03:12:00,
2013-11-11 21:17:00,19.2,-7.1,0.00,North,0,3.1,4.9,30,0.00,,,0.00,VWS V13.01,2013-11-12 03:17:00,
2013-11-11 21:22:00,19.2,-7.1,0.00,NNW,330,4.0,4.9,30,0.00,,,0.00,VWS V13.01,2013-11-12 03:22:00,
2013-11-11 21:27:00,19.2,-7.1,0.00,NW,310,2.7,2.7,30,0.00,,,0.00,VWS V13.01,2013-11-12 03:27:00,
2013-11-11 21:32:00,19.0,-7.3,0.00,NW,325,5.4,8.1,30,0.00,,,0.00,VWS V13.01,2013-11-12 03:32:00,
2013-11-11 21:37:00,19.0,-7.3,0.00,NNW,334,3.1,6.3,30,0.00,,,0.00,VWS V13.01,2013-11-12 03:37:00,
2013-11-11 21:42:00,18.7,-7.6,0.00,NW,313,4.9,4.9,30,0.00,,,0.00,VWS V13.01,2013-11-12 03:42:00,
2013-11-11 21:47:00,18.7,-7.6,0.00,NNW,335,3.6,3.6,30,0.00,,,0.00,VWS V13.01,2013-11-12 03:47:00,
2013-11-11 21:52:00,18.7,-7.6,0.00,North,353,4.9,4.9,30,0.00,,,0.00,VWS V13.01,2013-11-12 03:52:00,
2013-11-11 21:57:00,18.7,-7.6,0.00,NW,319,6.3,6.3,30,0.00,,,0.00,VWS V13.01,2013-11-12 03:57:00,
2013-11-11 22:02:00,18.5,-7.8,0.00,NW,319,3.1,8.1,30,0.00,,,0.00,VWS V13.01,2013-11-12 04:02:00,
2013-11-11 22:07:00,18.5,-7.8,0.00,NW,313,2.2,4.9,30,0.00,,,0.00,VWS V13.01,2013-11-12 04:07:00,
2013-11-11 22:12:00,18.5,-7.8,0.00,North,0,6.3,6.3,30,0.00,,,0.00,VWS V13.01,2013-11-12 04:12:00,
2013-11-11 22:17:00,18.3,-7.9,0.00,NW,309,2.7,4.9,30,0.00,,,0.00,VWS V13.01,2013-11-12 04:17:00,
2013-11-11 22:22:00,18.3,-7.9,0.00,NW,324,3.1,4.0,30,0.00,,,0.00,VWS V13.01,2013-11-12 04:22:00,
2013-11-11 22:27:00,18.1,-8.1,0.00,NNW,340,0.0,2.2,30,0.00,,,0.00,VWS V13.01,2013-11-12 04:27:00,
2013-11-11 22:32:00,18.1,-8.1,0.00,NW,308,0.0,2.2,30,0.00,,,0.00,VWS V13.01,2013-11-12 04:32:00,
2013-11-11 22:37:00,18.0,-8.2,0.00,NW,324,3.6,5.4,30,0.00,,,0.00,VWS V13.01,2013-11-12 04:37:00,
2013-11-11 22:42:00,17.8,-8.4,0.00,North,0,2.7,3.1,30,0.00,,,0.00,VWS V13.01,2013-11-12 04:42:00,
2013-11-11 22:47:00,17.8,-8.4,0.00,WNW,291,4.0,5.8,30,0.00,,,0.00,VWS V13.01,2013-11-12 04:47:00,
2013-11-11 22:52:00,17.6,-7.9,0.00,North,0,0.0,4.0,31,0.00,,,0.00,VWS V13.01,2013-11-12 04:52:00,
2013-11-11 22:57:00,17.6,-7.9,0.00,NW,305,3.6,3.6,31,0.00,,,0.00,VWS V13.01,2013-11-12 04:57:00,
2013-11-11 23:01:00,17.4,-8.0,0.00,NW,322,2.7,3.1,31,0.00,,,0.00,VWS V13.01,2013-11-12 05:01:00,
2013-11-11 23:02:00,17.4,-8.0,0.00,NW,311,2.2,2.7,31,0.00,,,0.00,VWS V13.01,2013-11-12 05:02:00,
2013-11-11 23:07:00,17.4,-8.0,0.00,West,269,2.7,2.7,31,0.00,,,0.00,VWS V13.01,2013-11-12 05:07:00,
2013-11-11 23:12:00,17.2,-8.2,0.00,NNW,336,2.2,2.2,31,0.00,,,0.00,VWS V13.01,2013-11-12 05:12:00,
2013-11-11 23:17:00,16.9,-8.5,0.00,NNW,337,0.0,0.0,31,0.00,,,0.00,VWS V13.01,2013-11-12 05:17:00,
2013-11-11 23:22:00,16.7,-8.7,0.00,NW,321,0.0,0.0,31,0.00,,,0.00,VWS V13.01,2013-11-12 05:22:00,
2013-11-11 23:27:00,16.5,-8.8,0.00,NW,318,0.0,0.0,31,0.00,,,0.00,VWS V13.01,2013-11-12 05:27:00,
2013-11-11 23:32:00,16.3,-7.7,0.00,NNW,335,3.1,3.1,33,0.00,,,0.00,VWS V13.01,2013-11-12 05:32:00,
2013-11-11 23:37:00,16.2,-7.9,0.00,NW,323,2.7,3.1,33,0.00,,,0.00,VWS V13.01,2013-11-12 05:37:00,
2013-11-11 23:42:00,16.2,-7.9,0.00,NW,319,0.0,2.2,33,0.00,,,0.00,VWS V13.01,2013-11-12 05:42:00,
2013-11-11 23:47:00,16.2,-7.3,0.00,NW,309,0.0,2.7,34,0.00,,,0.00,VWS V13.01,2013-11-12 05:47:00,
2013-11-11 23:52:00,16.0,-7.4,0.00,WNW,286,3.1,3.1,34,0.00,,,0.00,VWS V13.01,2013-11-12 05:52:00,
2013-11-11 23:57:00,16.0,-7.4,0.00,NW,316,2.2,4.0,34,0.00,,,0.00,VWS V13.01,2013-11-12 05:57:00,